Terminal Aerodrome Forecast
Issued by NWS

Home | Current Version | Previous Version | Text Only | Print | Product List | Glossary Off
Versions: 1 2 3 4 5 6 7 8 9 10 11 12 13 14 15 16 17 18

000
FTUS43 KGRB 250300 AAB
TAFCWA
TAF AMD
KCWA 250314Z 2503/2524 14006KT 5SM BR OVC006
      TEMPO 2508/2511 2SM TSRA OVC015CB
     FM251400 22005KT P6SM BKN030
     FM251800 24009G17KT P6SM SCT035 BKN080
      AMD LTD TO CLD VIS AND WIND TIL 251100=

USA.gov is the U.S. government's official web portal to all federal, state and local government web resources and services.